Time;durP1;ratioP1;P1;durP2;ratioP2;P2;SDS_P1;SDS_P2;PMS_P1;PMS_P2;Temp;Humidity;BMP_temperature;BMP_pressure;BME280_temperature;BME280_humidity;BME280_pressure;Samples;Min_cycle;Max_cycle;Signal;HPM_P1;HPM_P2
2023/01/21 00:01:37;;;;;;;34.63;23.00;;;;;;;;;;5176803;28;20086;-81
2023/01/21 00:04:08;;;;;;;35.33;22.23;;;;;;;;;;5176466;28;20037;-80
2023/01/21 00:06:39;;;;;;;32.70;21.90;;;;;;;;;;5176884;28;20030;-80
2023/01/21 00:09:10;;;;;;;33.90;22.67;;;;;;;;;;5177054;28;20429;-80
2023/01/21 00:11:41;;;;;;;35.13;23.57;;;;;;;;;;5176287;28;20046;-81
2023/01/21 00:14:13;;;;;;;33.70;22.33;;;;;;;;;;5176809;28;20077;-80
2023/01/21 00:16:44;;;;;;;29.63;20.10;;;;;;;;;;5176905;28;20026;-81
2023/01/21 00:19:15;;;;;;;33.93;22.30;;;;;;;;;;5176011;28;20050;-81
2023/01/21 00:21:46;;;;;;;32.57;21.50;;;;;;;;;;5176792;28;20026;-81
2023/01/21 00:24:17;;;;;;;33.67;22.33;;;;;;;;;;5175900;28;20070;-81
2023/01/21 00:26:48;;;;;;;35.70;24.47;;;;;;;;;;5177230;28;20019;-81
2023/01/21 00:29:20;;;;;;;33.17;23.00;;;;;;;;;;5176755;28;20031;-81
2023/01/21 00:31:51;;;;;;;34.77;22.70;;;;;;;;;;5175808;28;20014;-80
2023/01/21 00:34:23;;;;;;;37.97;23.60;;;;;;;;;;5176426;28;20385;-81
2023/01/21 00:36:54;;;;;;;36.17;23.83;;;;;;;;;;5176369;28;20030;-80
2023/01/21 00:39:25;;;;;;;34.63;22.17;;;;;;;;;;5175559;28;20027;-80
2023/01/21 00:41:56;;;;;;;34.17;22.70;;;;;;;;;;5176850;28;20026;-81
2023/01/21 00:44:27;;;;;;;36.27;24.30;;;;;;;;;;5176246;28;20289;-81
2023/01/21 00:46:58;;;;;;;39.40;23.33;;;;;;;;;;5176311;28;20118;-81
2023/01/21 00:49:30;;;;;;;38.70;24.10;;;;;;;;;;5176085;28;20027;-81
2023/01/21 00:52:01;;;;;;;34.57;22.47;;;;;;;;;;5176557;28;20110;-81
2023/01/21 00:54:32;;;;;;;35.53;24.27;;;;;;;;;;5175684;28;20034;-82
2023/01/21 00:57:05;;;;;;;36.33;22.23;;;;;;;;;;5176370;28;20057;-82
2023/01/21 00:59:36;;;;;;;37.03;21.60;;;;;;;;;;5175535;28;20454;-81
2023/01/21 01:02:08;;;;;;;35.43;23.07;;;;;;;;;;5176073;28;20089;-81
2023/01/21 01:04:39;;;;;;;36.73;23.23;;;;;;;;;;5176308;28;20023;-81
2023/01/21 01:07:11;;;;;;;37.03;24.17;;;;;;;;;;5174997;28;20027;-81
2023/01/21 01:09:42;;;;;;;37.50;23.60;;;;;;;;;;5176119;28;20019;-80
2023/01/21 01:12:13;;;;;;;37.47;23.27;;;;;;;;;;5176147;28;20103;-81
2023/01/21 01:14:45;;;;;;;38.73;24.53;;;;;;;;;;5175668;28;20030;-80
2023/01/21 01:17:16;;;;;;;36.73;24.57;;;;;;;;;;5176202;28;20018;-81
2023/01/21 01:19:48;;;;;;;38.47;23.87;;;;;;;;;;5175890;28;20023;-80
2023/01/21 01:22:19;;;;;;;43.90;26.27;;;;;;;;;;5175492;28;20057;-80
2023/01/21 01:24:50;;;;;;;40.47;24.07;;;;;;;;;;5175816;28;20030;-81
2023/01/21 01:27:21;;;;;;;38.83;25.30;;;;;;;;;;5175325;28;20466;-81
2023/01/21 01:29:52;;;;;;;40.50;25.40;;;;;;;;;;5175727;28;20551;-81
2023/01/21 01:32:23;;;;;;;37.70;24.57;;;;;;;;;;5175642;28;20050;-80
2023/01/21 01:34:55;;;;;;;41.33;25.20;;;;;;;;;;5175095;28;20046;-81
2023/01/21 01:37:26;;;;;;;41.67;25.83;;;;;;;;;;5175455;28;20030;-81
2023/01/21 01:39:57;;;;;;;40.67;24.87;;;;;;;;;;5176156;28;20432;-81
2023/01/21 01:42:28;;;;;;;40.57;26.70;;;;;;;;;;5174873;28;20034;-81
2023/01/21 01:45:01;;;;;;;40.37;25.53;;;;;;;;;;5175960;28;20061;-81
2023/01/21 01:47:45;;;;;;;40.03;26.90;;;;;;;;;;5175604;28;20023;-81
2023/01/21 01:50:17;;;;;;;40.83;26.20;;;;;;;;;;5174821;28;20050;-81
2023/01/21 01:52:48;;;;;;;39.50;24.47;;;;;;;;;;5175671;28;20496;-79
2023/01/21 01:55:20;;;;;;;41.83;25.50;;;;;;;;;;5175772;28;20023;-79
2023/01/21 01:57:52;;;;;;;41.23;27.13;;;;;;;;;;5175040;28;20136;-79
2023/01/21 02:00:24;;;;;;;41.50;27.67;;;;;;;;;;5175325;28;20015;-80
2023/01/21 02:05:45;;;;;;;45.47;28.13;;;;;;;;;;5175606;28;20397;-80
2023/01/21 02:08:17;;;;;;;45.97;28.93;;;;;;;;;;5175503;28;20026;-80
2023/01/21 02:10:48;;;;;;;40.83;27.17;;;;;;;;;;5174654;28;20068;-79
2023/01/21 02:13:19;;;;;;;43.77;28.30;;;;;;;;;;5175596;28;20035;-80
2023/01/21 02:15:59;;;;;;;42.27;27.30;;;;;;;;;;5175564;28;20023;-79
2023/01/21 02:18:33;;;;;;;43.73;28.40;;;;;;;;;;5175192;28;20039;-79
2023/01/21 02:21:05;;;;;;;48.20;29.13;;;;;;;;;;5178678;28;20363;-79
2023/01/21 02:23:55;;;;;;;48.12;28.82;;;;;;;;;;5178653;28;20109;-80
2023/01/21 02:26:29;;;;;;;46.77;30.07;;;;;;;;;;5178525;28;20389;-79
2023/01/21 02:29:13;;;;;;;46.10;30.27;;;;;;;;;;5178691;28;20023;-80
2023/01/21 02:32:04;;;;;;;47.73;29.90;;;;;;;;;;5178052;28;20545;-80
2023/01/21 02:34:39;;;;;;;51.47;33.23;;;;;;;;;;5178561;28;20066;-79
2023/01/21 02:37:16;;;;;;;51.47;31.53;;;;;;;;;;5178338;28;20031;-80
2023/01/21 02:39:54;;;;;;;49.23;31.67;;;;;;;;;;5177844;28;20084;-79
2023/01/21 02:42:37;;;;;;;53.10;32.37;;;;;;;;;;5178171;28;20027;-79
2023/01/21 02:45:25;;;;;;;55.10;34.47;;;;;;;;;;5177943;28;20419;-79
2023/01/21 02:48:15;;;;;;;41.28;26.05;;;;;;;;;;5178755;28;20069;-80
2023/01/21 02:50:48;;;;;;;53.07;32.70;;;;;;;;;;5178122;28;20133;-79
2023/01/21 02:53:29;;;;;;;56.87;35.93;;;;;;;;;;5177659;28;20042;-79
2023/01/21 02:56:10;;;;;;;53.97;34.73;;;;;;;;;;5178084;28;20023;-80
2023/01/21 02:58:48;;;;;;;58.23;35.07;;;;;;;;;;5177922;28;20026;-80
2023/01/21 03:01:30;;;;;;;55.67;34.87;;;;;;;;;;5178077;28;20034;-80
2023/01/21 03:04:01;;;;;;;61.07;36.20;;;;;;;;;;5178185;28;20497;-80
2023/01/21 03:06:45;;;;;;;59.53;34.30;;;;;;;;;;5177247;28;20023;-80
2023/01/21 03:09:22;;;;;;;60.50;34.40;;;;;;;;;;5177758;28;20110;-80
2023/01/21 03:12:12;;;;;;;53.20;34.27;;;;;;;;;;5176584;28;20019;-80
2023/01/21 03:17:56;;;;;;;41.95;25.50;;;;;;;;;;5177960;28;20059;-80
2023/01/21 03:20:29;;;;;;;56.93;34.30;;;;;;;;;;5176820;28;20030;-80
2023/01/21 03:23:02;;;;;;;56.70;34.23;;;;;;;;;;5177811;28;20026;-80
2023/01/21 03:25:34;;;;;;;51.67;33.40;;;;;;;;;;5177644;28;20092;-80
2023/01/21 03:28:07;;;;;;;55.43;33.53;;;;;;;;;;5176892;28;20015;-80
2023/01/21 03:30:43;;;;;;;54.33;33.60;;;;;;;;;;5177229;28;20062;-80
2023/01/21 03:33:15;;;;;;;46.80;31.03;;;;;;;;;;5177574;28;20497;-80
2023/01/21 03:35:47;;;;;;;55.20;33.13;;;;;;;;;;5177309;28;20065;-80
2023/01/21 03:38:26;;;;;;;48.23;31.90;;;;;;;;;;5197265;28;20026;-80
2023/01/21 03:41:00;;;;;;;50.53;30.02;;;;;;;;;;5185454;28;20065;-80
2023/01/21 03:43:31;;;;;;;49.23;31.17;;;;;;;;;;5178258;28;20079;-80
2023/01/21 03:46:05;;;;;;;51.87;32.00;;;;;;;;;;5177572;28;20457;-80
2023/01/21 03:48:42;;;;;;;48.47;30.47;;;;;;;;;;5176839;28;20110;-80
2023/01/21 03:51:15;;;;;;;47.57;29.27;;;;;;;;;;5177181;28;20122;-80
2023/01/21 03:53:56;;;;;;;49.97;29.53;;;;;;;;;;5177428;28;20110;-80
2023/01/21 03:56:28;;;;;;;49.47;30.63;;;;;;;;;;5176430;28;20063;-81
2023/01/21 03:58:59;;;;;;;47.47;29.47;;;;;;;;;;5177270;28;20057;-80
2023/01/21 04:01:30;;;;;;;48.50;28.17;;;;;;;;;;5177050;28;20058;-80
2023/01/21 04:04:01;;;;;;;49.27;29.97;;;;;;;;;;5176939;28;20034;-81
2023/01/21 04:06:33;;;;;;;48.87;30.97;;;;;;;;;;5177298;28;20080;-81
2023/01/21 04:09:05;;;;;;;46.93;28.20;;;;;;;;;;5177102;28;20011;-80
2023/01/21 04:11:36;;;;;;;44.40;28.07;;;;;;;;;;5176253;28;20015;-80
2023/01/21 04:14:07;;;;;;;48.57;29.90;;;;;;;;;;5177181;28;20031;-80
2023/01/21 04:16:38;;;;;;;50.77;29.57;;;;;;;;;;5176370;28;20019;-80
2023/01/21 04:19:09;;;;;;;46.33;28.60;;;;;;;;;;5176974;28;20023;-80
2023/01/21 04:21:41;;;;;;;46.17;28.53;;;;;;;;;;5176940;28;20071;-79
2023/01/21 04:24:12;;;;;;;47.13;28.60;;;;;;;;;;5176118;28;20023;-80
2023/01/21 04:26:43;;;;;;;45.30;27.67;;;;;;;;;;5177243;28;20032;-80
2023/01/21 04:29:15;;;;;;;49.23;29.33;;;;;;;;;;5177182;28;20038;-80
2023/01/21 04:31:47;;;;;;;48.17;28.57;;;;;;;;;;5176388;28;20049;-80
2023/01/21 04:34:18;;;;;;;47.70;28.27;;;;;;;;;;5177127;28;20038;-80
2023/01/21 04:36:49;;;;;;;42.23;26.37;;;;;;;;;;5177193;28;20023;-80
2023/01/21 04:39:20;;;;;;;45.17;27.57;;;;;;;;;;5175992;28;20164;-80
2023/01/21 04:41:52;;;;;;;42.80;26.73;;;;;;;;;;5176213;28;20015;-81
2023/01/21 04:44:23;;;;;;;45.33;28.07;;;;;;;;;;5176394;28;20393;-80
2023/01/21 04:46:54;;;;;;;44.43;27.13;;;;;;;;;;5176835;28;20034;-80
2023/01/21 04:49:25;;;;;;;43.20;26.80;;;;;;;;;;5176710;28;20386;-81
2023/01/21 04:51:56;;;;;;;44.37;26.27;;;;;;;;;;5176671;28;20373;-81
2023/01/21 04:54:27;;;;;;;43.87;26.23;;;;;;;;;;5176366;28;20058;-80
2023/01/21 04:56:59;;;;;;;45.20;25.27;;;;;;;;;;5177202;28;20405;-81
2023/01/21 04:59:30;;;;;;;40.67;25.23;;;;;;;;;;5175834;28;20029;-80
2023/01/21 05:02:01;;;;;;;40.43;24.63;;;;;;;;;;5176602;28;20410;-81
2023/01/21 05:04:32;;;;;;;44.27;27.07;;;;;;;;;;5177109;28;20023;-80
2023/01/21 05:07:04;;;;;;;45.73;27.27;;;;;;;;;;5179050;28;20053;-80
2023/01/21 05:09:35;;;;;;;44.53;26.80;;;;;;;;;;5185949;28;20031;-79
2023/01/21 05:12:06;;;;;;;42.73;26.90;;;;;;;;;;5187226;28;20051;-80
2023/01/21 05:14:38;;;;;;;43.50;25.87;;;;;;;;;;5177036;28;20039;-80
2023/01/21 05:17:09;;;;;;;47.77;26.10;;;;;;;;;;5176700;28;20030;-79
2023/01/21 05:19:40;;;;;;;44.13;26.60;;;;;;;;;;5179087;28;20026;-79
2023/01/21 05:22:11;;;;;;;45.00;27.60;;;;;;;;;;5179773;28;20474;-80
2023/01/21 05:24:43;;;;;;;46.00;26.93;;;;;;;;;;5176689;28;20053;-80
2023/01/21 05:27:14;;;;;;;45.27;27.17;;;;;;;;;;5176087;28;20030;-80
2023/01/21 05:29:46;;;;;;;42.33;26.33;;;;;;;;;;5176724;28;20370;-81
2023/01/21 05:32:17;;;;;;;44.53;26.87;;;;;;;;;;5175788;28;20019;-80
2023/01/21 05:34:48;;;;;;;43.50;26.90;;;;;;;;;;5175058;28;20466;-80
2023/01/21 05:37:20;;;;;;;43.70;25.70;;;;;;;;;;5176018;28;20050;-80
2023/01/21 05:39:51;;;;;;;44.77;27.23;;;;;;;;;;5175831;28;20018;-81
2023/01/21 05:42:22;;;;;;;41.77;26.07;;;;;;;;;;5175056;28;20027;-81
2023/01/21 05:44:53;;;;;;;42.13;26.77;;;;;;;;;;5175781;28;20101;-81
2023/01/21 05:47:24;;;;;;;44.13;27.40;;;;;;;;;;5175460;28;20030;-79
2023/01/21 05:49:55;;;;;;;43.87;26.80;;;;;;;;;;5175469;28;20030;-80
2023/01/21 05:52:27;;;;;;;43.73;25.70;;;;;;;;;;5175815;28;20054;-80
2023/01/21 05:54:58;;;;;;;47.07;26.93;;;;;;;;;;5184134;28;20111;-79
2023/01/21 05:57:30;;;;;;;43.63;25.87;;;;;;;;;;5200893;28;20018;-79
2023/01/21 06:00:01;;;;;;;40.53;25.00;;;;;;;;;;5182397;28;20027;-80
2023/01/21 06:02:32;;;;;;;44.27;25.47;;;;;;;;;;5178442;28;20051;-80
2023/01/21 06:05:03;;;;;;;41.63;25.43;;;;;;;;;;5179036;28;20027;-81
2023/01/21 06:07:34;;;;;;;43.80;26.10;;;;;;;;;;5179043;28;20038;-81
2023/01/21 06:10:06;;;;;;;40.63;24.77;;;;;;;;;;5178269;28;20031;-81
2023/01/21 06:12:37;;;;;;;43.97;26.17;;;;;;;;;;5178690;28;20469;-81
2023/01/21 06:15:09;;;;;;;44.03;25.43;;;;;;;;;;5178812;28;20050;-80
2023/01/21 06:17:40;;;;;;;42.23;25.57;;;;;;;;;;5178467;28;20049;-80
2023/01/21 06:20:11;;;;;;;40.33;24.53;;;;;;;;;;5178755;28;20030;-80
2023/01/21 06:22:43;;;;;;;40.77;24.37;;;;;;;;;;5178698;28;20424;-81
2023/01/21 06:25:14;;;;;;;38.70;24.10;;;;;;;;;;5178120;28;20092;-82
2023/01/21 06:27:45;;;;;;;40.30;25.33;;;;;;;;;;5179054;28;20390;-80
2023/01/21 06:30:16;;;;;;;40.73;24.03;;;;;;;;;;5178252;28;20035;-81
2023/01/21 06:32:48;;;;;;;41.60;24.77;;;;;;;;;;5178780;28;20124;-80
2023/01/21 06:35:19;;;;;;;39.53;25.33;;;;;;;;;;5178516;28;20034;-81
2023/01/21 06:37:50;;;;;;;42.20;25.77;;;;;;;;;;5178267;28;20389;-80
2023/01/21 06:40:21;;;;;;;44.03;25.90;;;;;;;;;;5179356;28;20396;-80
2023/01/21 06:42:53;;;;;;;44.33;25.70;;;;;;;;;;5194891;28;20013;-82
2023/01/21 06:45:24;;;;;;;46.40;26.57;;;;;;;;;;5194263;28;20023;-82
2023/01/21 06:47:55;;;;;;;43.53;26.80;;;;;;;;;;5181583;28;20099;-82
2023/01/21 06:50:26;;;;;;;48.80;29.10;;;;;;;;;;5179334;28;20027;-82
2023/01/21 06:52:58;;;;;;;46.37;28.27;;;;;;;;;;5178250;28;20367;-81
2023/01/21 06:55:29;;;;;;;47.23;28.10;;;;;;;;;;5178340;28;20030;-77
2023/01/21 06:58:00;;;;;;;48.13;27.83;;;;;;;;;;5177591;28;20058;-82
2023/01/21 07:00:31;;;;;;;43.90;26.20;;;;;;;;;;5178333;28;20038;-81
2023/01/21 07:03:02;;;;;;;43.63;25.57;;;;;;;;;;5178217;28;20061;-82
2023/01/21 07:05:33;;;;;;;41.97;25.50;;;;;;;;;;5177015;28;20532;-82
2023/01/21 07:08:05;;;;;;;41.73;25.53;;;;;;;;;;5178347;28;20050;-82
2023/01/21 07:10:36;;;;;;;41.30;25.77;;;;;;;;;;5178225;28;20038;-83
2023/01/21 07:13:07;;;;;;;43.90;26.53;;;;;;;;;;5177527;28;20411;-82
2023/01/21 07:15:38;;;;;;;46.10;26.00;;;;;;;;;;5178194;28;20467;-82
2023/01/21 07:18:09;;;;;;;42.03;26.13;;;;;;;;;;5178385;28;20022;-81
2023/01/21 07:20:41;;;;;;;44.10;26.70;;;;;;;;;;5177506;28;20068;-82
2023/01/21 07:23:12;;;;;;;44.53;26.53;;;;;;;;;;5177878;28;20019;-82
2023/01/21 07:25:44;;;;;;;49.63;27.47;;;;;;;;;;5178185;28;20041;-82
2023/01/21 07:28:15;;;;;;;43.80;25.43;;;;;;;;;;5177321;28;20019;-82
2023/01/21 07:30:46;;;;;;;43.67;26.17;;;;;;;;;;5178030;28;20054;-82
2023/01/21 07:33:17;;;;;;;45.13;25.43;;;;;;;;;;5177161;28;20562;-82
2023/01/21 07:35:49;;;;;;;40.60;25.67;;;;;;;;;;5178017;28;20357;-81
2023/01/21 07:38:20;;;;;;;43.43;26.50;;;;;;;;;;5177560;28;20030;-83
2023/01/21 07:40:51;;;;;;;46.23;26.83;;;;;;;;;;5176805;28;20026;-80
2023/01/21 07:43:23;;;;;;;42.90;24.67;;;;;;;;;;5177409;28;20077;-80
2023/01/21 07:45:55;;;;;;;44.57;26.03;;;;;;;;;;5177216;28;20014;-80
2023/01/21 07:48:26;;;;;;;40.90;25.10;;;;;;;;;;5175889;28;20030;-81
2023/01/21 07:50:58;;;;;;;44.90;25.13;;;;;;;;;;5177658;28;20038;-81
2023/01/21 07:53:29;;;;;;;44.33;25.17;;;;;;;;;;5176807;28;20027;-80
2023/01/21 07:56:06;;;;;;;46.00;25.73;;;;;;;;;;5176391;28;20034;-81
2023/01/21 07:58:38;;;;;;;43.03;25.47;;;;;;;;;;5177005;28;20031;-81
2023/01/21 08:01:09;;;;;;;46.10;27.00;;;;;;;;;;5177108;28;20129;-80
2023/01/21 08:03:40;;;;;;;42.93;26.03;;;;;;;;;;5175973;28;20513;-81
2023/01/21 08:06:11;;;;;;;45.07;26.23;;;;;;;;;;5176948;28;20023;-80
2023/01/21 08:08:42;;;;;;;49.60;27.80;;;;;;;;;;5176398;28;20037;-80
2023/01/21 08:11:14;;;;;;;43.23;25.97;;;;;;;;;;5177027;28;20088;-81
2023/01/21 08:13:45;;;;;;;47.40;26.67;;;;;;;;;;5177077;28;20100;-77
2023/01/21 08:16:16;;;;;;;47.33;26.83;;;;;;;;;;5175006;28;20019;-78
2023/01/21 08:18:47;;;;;;;49.67;28.37;;;;;;;;;;5178136;28;20042;-81
2023/01/21 08:21:19;;;;;;;51.27;29.50;;;;;;;;;;5178226;28;20054;-82
2023/01/21 08:23:50;;;;;;;53.63;29.10;;;;;;;;;;5176744;28;20015;-83
2023/01/21 08:26:22;;;;;;;52.08;29.35;;;;;;;;;;5177101;28;20045;-83
2023/01/21 08:28:53;;;;;;;53.17;29.60;;;;;;;;;;5177341;28;20019;-82
2023/01/21 08:31:25;;;;;;;52.37;30.23;;;;;;;;;;5176461;28;20021;-83
2023/01/21 08:33:56;;;;;;;56.77;32.03;;;;;;;;;;5176885;28;20088;-76
2023/01/21 08:36:28;;;;;;;56.00;29.90;;;;;;;;;;5175249;28;20027;-75
2023/01/21 08:39:04;;;;;;;56.63;30.97;;;;;;;;;;5176617;28;20097;-80
2023/01/21 08:41:35;;;;;;;57.47;32.83;;;;;;;;;;5176477;28;20114;-81
2023/01/21 08:44:07;;;;;;;55.37;31.90;;;;;;;;;;5175785;28;20106;-80
2023/01/21 08:46:38;;;;;;;58.23;32.50;;;;;;;;;;5176626;28;20101;-81
2023/01/21 08:49:09;;;;;;;58.40;31.70;;;;;;;;;;5176383;28;20038;-79
2023/01/21 08:51:40;;;;;;;67.27;36.10;;;;;;;;;;5175681;28;20052;-80
2023/01/21 08:54:11;;;;;;;60.33;32.87;;;;;;;;;;5176329;28;20050;-80
2023/01/21 08:56:43;;;;;;;58.43;31.73;;;;;;;;;;5176288;28;20109;-81
2023/01/21 08:59:14;;;;;;;65.37;33.90;;;;;;;;;;5175263;28;20027;-81
2023/01/21 09:01:45;;;;;;;58.17;31.57;;;;;;;;;;5176140;28;20046;-79
2023/01/21 09:04:16;;;;;;;61.57;33.57;;;;;;;;;;5176716;28;20102;-81
2023/01/21 09:06:48;;;;;;;62.63;33.50;;;;;;;;;;5176435;28;20045;-81
2023/01/21 09:09:19;;;;;;;61.00;33.73;;;;;;;;;;5177160;28;20026;-81
2023/01/21 09:11:51;;;;;;;64.63;34.20;;;;;;;;;;5175627;28;20019;-80
2023/01/21 09:14:22;;;;;;;63.23;35.10;;;;;;;;;;5176038;28;20046;-81
2023/01/21 09:16:54;;;;;;;55.30;31.83;;;;;;;;;;5176049;28;20462;-80
2023/01/21 09:19:26;;;;;;;59.50;31.67;;;;;;;;;;5175007;28;20026;-80
2023/01/21 09:21:57;;;;;;;68.07;33.60;;;;;;;;;;5176134;28;20477;-80
2023/01/21 09:24:28;;;;;;;60.03;33.53;;;;;;;;;;5175850;28;20077;-80
2023/01/21 09:26:59;;;;;;;59.83;31.90;;;;;;;;;;5175228;28;20058;-80
2023/01/21 09:29:31;;;;;;;61.67;32.70;;;;;;;;;;5178672;28;20023;-79
2023/01/21 09:32:04;;;;;;;60.10;30.47;;;;;;;;;;5179503;28;20026;-77
2023/01/21 09:34:35;;;;;;;64.20;34.13;;;;;;;;;;5178477;28;20073;-79
2023/01/21 09:37:06;;;;;;;56.27;30.33;;;;;;;;;;5179132;28;20019;-79
2023/01/21 09:39:37;;;;;;;62.27;32.20;;;;;;;;;;5179296;28;20019;-79
2023/01/21 09:42:16;;;;;;;66.53;33.10;;;;;;;;;;5179022;28;20557;-79
2023/01/21 09:44:47;;;;;;;;;;;;;;;;;;5180291;28;20122;-78
2023/01/21 09:47:21;;;;;;;62.63;29.33;;;;;;;;;;5178599;28;20345;-78
2023/01/21 09:49:54;;;;;;;62.33;31.23;;;;;;;;;;5179083;28;20019;-79
2023/01/21 09:52:26;;;;;;;61.53;31.77;;;;;;;;;;5178974;28;20023;-78
2023/01/21 09:54:57;;;;;;;60.27;31.33;;;;;;;;;;5178560;28;20043;-77
2023/01/21 09:57:47;;;;;;;59.40;31.07;;;;;;;;;;5178587;28;20080;-78
2023/01/21 10:00:28;;;;;;;58.50;29.90;;;;;;;;;;5178938;28;20023;-78
2023/01/21 10:03:03;;;;;;;60.83;29.13;;;;;;;;;;5177813;28;20474;-78
2023/01/21 10:05:40;;;;;;;70.90;33.40;;;;;;;;;;5178631;28;20031;-79
2023/01/21 10:08:17;;;;;;;57.77;29.37;;;;;;;;;;5177834;28;20031;-78
2023/01/21 10:10:55;;;;;;;69.37;33.37;;;;;;;;;;5178618;28;20081;-79
2023/01/21 10:13:33;;;;;;;68.03;33.35;;;;;;;;;;5178252;28;20511;-78
2023/01/21 10:16:24;;;;;;;70.70;34.30;;;;;;;;;;5192735;28;20041;-78
2023/01/21 10:18:56;;;;;;;62.23;28.93;;;;;;;;;;5198964;28;20021;-78
2023/01/21 10:21:27;;;;;;;59.47;29.83;;;;;;;;;;5193574;28;20116;-78
2023/01/21 10:24:02;;;;;;;64.63;32.83;;;;;;;;;;5185736;28;20038;-79
2023/01/21 10:26:34;;;;;;;65.47;32.13;;;;;;;;;;5186263;28;20458;-78
2023/01/21 10:29:05;;;;;;;62.67;30.97;;;;;;;;;;5182970;28;20025;-78
2023/01/21 10:31:39;;;;;;;64.10;31.97;;;;;;;;;;5187941;28;20097;-78
2023/01/21 10:34:13;;;;;;;68.30;33.93;;;;;;;;;;5187378;28;20474;-79
2023/01/21 10:36:49;;;;;;;69.03;32.90;;;;;;;;;;5186645;28;20141;-77
2023/01/21 10:39:21;;;;;;;62.50;31.50;;;;;;;;;;5186887;28;20412;-78
2023/01/21 10:41:52;;;;;;;63.23;29.87;;;;;;;;;;5188468;28;20033;-79
2023/01/21 10:44:27;;;;;;;65.80;31.10;;;;;;;;;;5175737;28;20038;-78
2023/01/21 10:47:01;;;;;;;64.63;32.73;;;;;;;;;;5188159;28;20026;-79
2023/01/21 10:49:38;;;;;;;59.43;30.70;;;;;;;;;;5187330;28;20072;-79
2023/01/21 10:52:12;;;;;;;62.93;30.30;;;;;;;;;;5187201;28;20022;-78
2023/01/21 10:55:07;;;;;;;57.33;29.10;;;;;;;;;;5185367;28;20035;-78
2023/01/21 10:57:53;;;;;;;61.67;30.40;;;;;;;;;;5188260;28;20018;-79
2023/01/21 11:00:30;;;;;;;58.70;28.87;;;;;;;;;;5184385;28;20015;-78
2023/01/21 11:03:05;;;;;;;54.17;28.87;;;;;;;;;;5177131;28;20047;-77
2023/01/21 11:05:37;;;;;;;56.47;28.40;;;;;;;;;;5176772;28;20030;-78
2023/01/21 11:08:13;;;;;;;57.80;29.50;;;;;;;;;;5176975;28;20027;-78
2023/01/21 11:10:46;;;;;;;60.50;28.90;;;;;;;;;;5177116;28;20070;-78
2023/01/21 11:13:17;;;;;;;56.93;29.77;;;;;;;;;;5176799;28;20058;-78
2023/01/21 11:15:55;;;;;;;54.70;29.87;;;;;;;;;;5177676;28;20023;-78
2023/01/21 11:18:29;;;;;;;52.92;29.05;;;;;;;;;;5186124;28;20570;-78
2023/01/21 11:21:21;;;;;;;56.40;29.60;;;;;;;;;;5187717;28;20105;-78
2023/01/21 11:24:03;;;;;;;54.10;28.80;;;;;;;;;;5193719;28;20361;-77
2023/01/21 11:26:35;;;;;;;51.83;27.97;;;;;;;;;;5196117;28;20030;-76
2023/01/21 11:29:09;;;;;;;53.30;29.83;;;;;;;;;;5197509;28;20079;-77
2023/01/21 11:31:42;;;;;;;56.90;29.13;;;;;;;;;;5197623;28;20023;-77
2023/01/21 11:34:23;;;;;;;54.63;28.93;;;;;;;;;;5196482;28;20121;-77
2023/01/21 11:36:54;;;;;;;51.70;28.50;;;;;;;;;;5197502;28;20017;-76
2023/01/21 11:39:27;;;;;;;53.10;29.27;;;;;;;;;;5195797;28;20018;-76
2023/01/21 11:42:06;;;;;;;49.23;27.03;;;;;;;;;;5187871;28;20015;-76
2023/01/21 11:44:49;;;;;;;48.13;27.13;;;;;;;;;;5187159;28;20022;-77
2023/01/21 11:47:35;;;;;;;52.93;28.13;;;;;;;;;;5184536;28;20026;-77
2023/01/21 11:50:09;;;;;;;51.57;27.80;;;;;;;;;;5194925;28;20083;-77
2023/01/21 11:52:41;;;;;;;45.63;25.37;;;;;;;;;;5197064;28;20068;-78
2023/01/21 11:55:18;;;;;;;48.70;27.90;;;;;;;;;;5196972;28;20416;-78
2023/01/21 11:57:51;;;;;;;46.20;26.43;;;;;;;;;;5197603;28;20443;-78
2023/01/21 12:00:23;;;;;;;47.63;25.40;;;;;;;;;;5196327;28;20019;-78
2023/01/21 12:02:58;;;;;;;49.23;25.40;;;;;;;;;;5197390;28;20145;-78
2023/01/21 12:05:31;;;;;;;44.57;24.77;;;;;;;;;;5196749;28;20103;-78
2023/01/21 12:08:03;;;;;;;44.50;25.43;;;;;;;;;;5196238;28;20042;-76
2023/01/21 12:10:37;;;;;;;42.60;24.40;;;;;;;;;;5197016;28;20080;-78
2023/01/21 12:13:08;;;;;;;42.30;24.33;;;;;;;;;;5196974;28;20026;-78
2023/01/21 12:16:03;;;;;;;48.08;26.75;;;;;;;;;;5196560;28;20450;-78
2023/01/21 12:18:52;;;;;;;44.53;25.73;;;;;;;;;;5197017;28;20034;-77
2023/01/21 12:21:33;;;;;;;43.23;23.70;;;;;;;;;;5196609;28;20440;-77
2023/01/21 12:24:23;;;;;;;42.37;24.47;;;;;;;;;;5196986;28;20477;-77
2023/01/21 12:27:11;;;;;;;44.57;25.40;;;;;;;;;;5197020;28;20371;-77
2023/01/21 12:29:53;;;;;;;46.22;25.40;;;;;;;;;;5196209;28;20339;-77
2023/01/21 12:32:29;;;;;;;41.03;24.33;;;;;;;;;;5196733;28;20114;-77
2023/01/21 12:35:04;;;;;;;41.30;24.38;;;;;;;;;;5186363;28;20042;-76
2023/01/21 12:37:38;;;;;;;42.03;25.17;;;;;;;;;;5190310;28;20015;-76
2023/01/21 12:40:33;;;;;;;42.80;25.40;;;;;;;;;;5196262;28;20015;-75
2023/01/21 12:43:16;;;;;;;44.70;24.75;;;;;;;;;;5197438;28;20031;-76
2023/01/21 12:45:55;;;;;;;38.38;22.25;;;;;;;;;;5190750;28;20038;-76
2023/01/21 12:48:26;;;;;;;;;;;;;;;;;;5187612;28;20489;-77
2023/01/21 12:51:18;;;;;;;37.00;22.23;;;;;;;;;;5188041;28;19906;-77
2023/01/21 12:54:08;;;;;;;45.60;25.57;;;;;;;;;;5181194;28;20309;-76
2023/01/21 12:56:42;;;;;;;41.63;24.87;;;;;;;;;;5175199;28;20038;-77
2023/01/21 12:59:13;;;;;;;35.70;22.63;;;;;;;;;;5175729;28;20022;-77
2023/01/21 13:01:50;;;;;;;37.00;23.67;;;;;;;;;;5175509;28;20057;-77
2023/01/21 13:04:33;;;;;;;40.28;24.38;;;;;;;;;;5175512;28;20358;-77
2023/01/21 13:07:20;;;;;;;41.45;24.70;;;;;;;;;;5175734;28;20351;-77
2023/01/21 13:09:56;;;;;;;41.58;25.00;;;;;;;;;;5176095;28;20119;-76
2023/01/21 13:12:29;;;;;;;38.35;23.95;;;;;;;;;;5174719;28;20121;-77
2023/01/21 13:15:03;;;;;;;36.85;22.48;;;;;;;;;;5176169;28;20034;-77
2023/01/21 13:17:35;;;;;;;38.70;23.95;;;;;;;;;;5175451;28;20030;-77
2023/01/21 13:20:20;;;;;;;37.53;23.60;;;;;;;;;;5174385;28;20034;-77
2023/01/21 13:23:00;;;;;;;37.30;22.55;;;;;;;;;;5175650;28;20019;-77
2023/01/21 13:25:31;;;;;;;37.40;23.58;;;;;;;;;;5174838;28;20033;-78
2023/01/21 13:28:10;;;;;;;38.65;24.38;;;;;;;;;;5189422;28;20023;-78
2023/01/21 13:30:45;;;;;;;39.53;23.65;;;;;;;;;;5195633;28;20105;-77
2023/01/21 13:33:40;;;;;;;36.38;23.40;;;;;;;;;;5194359;28;20027;-78
2023/01/21 13:36:19;;;;;;;39.03;23.30;;;;;;;;;;5195721;28;20022;-75
2023/01/21 13:38:59;;;;;;;34.70;21.73;;;;;;;;;;5195098;28;20067;-77
2023/01/21 13:41:36;;;;;;;38.00;22.47;;;;;;;;;;5194467;28;20106;-77
2023/01/21 13:44:07;;;;;;;36.92;23.38;;;;;;;;;;5196035;28;20140;-77
2023/01/21 13:46:45;;;;;;;38.02;24.52;;;;;;;;;;5194931;28;20038;-77
2023/01/21 13:49:31;;;;;;;37.88;22.58;;;;;;;;;;5195945;28;20054;-77
2023/01/21 13:52:06;;;;;;;43.38;25.60;;;;;;;;;;5195919;28;20033;-77
2023/01/21 13:54:48;;;;;;;40.63;25.88;;;;;;;;;;5194324;28;20038;-77
2023/01/21 13:57:37;;;;;;;43.83;25.33;;;;;;;;;;5195609;28;20033;-77
2023/01/21 14:00:18;;;;;;;43.42;24.88;;;;;;;;;;5194744;28;20105;-77
2023/01/21 14:03:09;;;;;;;38.63;22.63;;;;;;;;;;5195245;28;20088;-78
2023/01/21 14:05:43;;;;;;;38.20;24.13;;;;;;;;;;5184799;28;20034;-76
2023/01/21 14:08:32;;;;;;;39.23;24.17;;;;;;;;;;5194606;28;20451;-77
2023/01/21 14:11:08;;;;;;;40.40;25.30;;;;;;;;;;5195349;28;20385;-78
2023/01/21 14:13:51;;;;;;;41.97;24.47;;;;;;;;;;5195773;28;20041;-77
2023/01/21 14:16:28;;;;;;;37.65;22.67;;;;;;;;;;5197461;28;20026;-78
2023/01/21 14:19:19;;;;;;;36.92;23.25;;;;;;;;;;5198339;28;20050;-78
2023/01/21 14:21:59;;;;;;;34.17;20.45;;;;;;;;;;5197919;28;20061;-78
2023/01/21 14:24:52;;;;;;;34.40;21.60;;;;;;;;;;5198923;28;20050;-78
2023/01/21 14:27:26;;;;;;;36.60;22.10;;;;;;;;;;5198661;28;20071;-78
2023/01/21 14:29:57;;;;;;;30.80;19.67;;;;;;;;;;5198347;28;20473;-78
2023/01/21 14:32:39;;;;;;;32.33;20.30;;;;;;;;;;5198416;28;20083;-78
2023/01/21 14:35:31;;;;;;;29.80;18.97;;;;;;;;;;5197612;28;20083;-78
2023/01/21 14:38:20;;;;;;;28.10;16.70;;;;;;;;;;5198517;28;20023;-78
2023/01/21 14:41:02;;;;;;;26.65;16.90;;;;;;;;;;5198578;28;20036;-78
2023/01/21 14:43:35;;;;;;;27.53;17.10;;;;;;;;;;5198560;28;20018;-78
2023/01/21 14:46:23;;;;;;;25.37;16.37;;;;;;;;;;5200796;28;20019;-78
2023/01/21 14:49:07;;;;;;;24.53;16.50;;;;;;;;;;5198424;28;20076;-78
2023/01/21 14:51:43;;;;;;;24.60;15.30;;;;;;;;;;5198165;28;20024;-78
2023/01/21 14:54:16;;;;;;;24.80;15.60;;;;;;;;;;5198403;28;20361;-78
2023/01/21 14:56:54;;;;;;;24.83;15.17;;;;;;;;;;5197688;28;20025;-78
2023/01/21 14:59:37;;;;;;;23.23;15.23;;;;;;;;;;5197981;28;20026;-79
2023/01/21 15:02:27;;;;;;;25.67;16.60;;;;;;;;;;5198414;28;20082;-78
2023/01/21 15:05:13;;;;;;;25.67;16.17;;;;;;;;;;5197872;28;20030;-78
2023/01/21 15:07:45;;;;;;;24.03;15.37;;;;;;;;;;5198070;28;20152;-78